createdAt,value
2019-03-20T00:00:41.969Z,15.40
2019-03-20T00:02:48.586Z,18.73
2019-03-20T00:04:55.017Z,19.17
2019-03-20T00:07:01.465Z,18.30
2019-03-20T00:09:10.362Z,15.43
2019-03-20T00:11:16.956Z,18.93
2019-03-20T00:13:23.438Z,25.53
2019-03-20T00:15:29.901Z,27.03
2019-03-20T00:17:37.370Z,17.27
2019-03-20T00:19:43.762Z,21.57
2019-03-20T00:21:51.016Z,20.30
2019-03-20T00:23:57.598Z,17.13
2019-03-20T00:26:04.154Z,17.60
2019-03-20T00:28:10.637Z,19.70
2019-03-20T00:30:21.440Z,16.57
2019-03-20T00:32:27.855Z,14.80
2019-03-20T00:34:35.322Z,20.63
2019-03-20T00:36:42.099Z,15.40
2019-03-20T00:38:48.783Z,13.83
2019-03-20T00:40:55.313Z,12.60
2019-03-20T00:43:03.056Z,17.03
2019-03-20T00:45:16.268Z,17.20
2019-03-20T00:47:23.460Z,16.80
2019-03-20T00:49:29.814Z,10.27
2019-03-20T00:51:36.484Z,17.80
2019-03-20T00:53:46.842Z,15.83
2019-03-20T00:55:54.643Z,17.27
2019-03-20T00:58:01.014Z,16.57
2019-03-20T01:00:18.204Z,16.33
2019-03-20T01:02:26.112Z,15.87
2019-03-20T01:04:32.880Z,15.77
2019-03-20T01:06:39.268Z,13.63
2019-03-20T01:08:46.005Z,15.27
2019-03-20T01:10:52.703Z,17.23
2019-03-20T01:12:59.247Z,15.37
2019-03-20T01:15:07.971Z,16.23
2019-03-20T01:17:14.340Z,15.03
2019-03-20T01:19:20.898Z,19.73
2019-03-20T01:21:28.945Z,13.37
2019-03-20T01:23:35.369Z,17.30
2019-03-20T01:25:41.965Z,14.57
2019-03-20T01:27:48.293Z,12.90
2019-03-20T01:29:57.686Z,15.30
2019-03-20T01:32:04.264Z,14.50
2019-03-20T01:34:10.859Z,8.70
2019-03-20T01:36:17.539Z,13.27
2019-03-20T01:38:25.337Z,16.23
2019-03-20T01:40:32.601Z,17.33
2019-03-20T01:42:40.268Z,13.03
2019-03-20T01:44:46.700Z,19.20
2019-03-20T01:46:53.295Z,14.37
2019-03-20T01:48:59.701Z,15.37
2019-03-20T01:51:22.972Z,17.90
2019-03-20T01:53:29.429Z,18.97
2019-03-20T01:55:35.894Z,19.83
2019-03-20T01:57:42.578Z,13.37
2019-03-20T01:59:49.293Z,18.07
2019-03-20T02:01:55.703Z,14.70
2019-03-20T02:04:03.392Z,13.10
2019-03-20T02:06:09.854Z,16.93
2019-03-20T02:08:16.950Z,11.47
2019-03-20T02:10:23.397Z,12.90
2019-03-20T02:12:32.879Z,13.47
2019-03-20T02:14:40.110Z,17.07
2019-03-20T02:16:46.482Z,11.47
2019-03-20T02:18:53.346Z,15.57
2019-03-20T02:21:01.465Z,16.17
2019-03-20T02:23:08.024Z,15.77
2019-03-20T02:25:15.463Z,19.53
2019-03-20T02:27:21.969Z,19.27
2019-03-20T02:29:28.329Z,14.30
2019-03-20T02:31:34.703Z,15.90
2019-03-20T02:33:41.239Z,14.17
2019-03-20T02:35:51.962Z,15.60
2019-03-20T02:37:55.952Z,17.17
2019-03-20T02:40:02.516Z,15.10
2019-03-20T02:42:09.548Z,13.67
2019-03-20T02:44:18.121Z,17.27
2019-03-20T02:46:24.780Z,15.13
2019-03-20T02:48:31.144Z,13.30
2019-03-20T02:50:37.709Z,14.07
2019-03-20T02:52:44.308Z,18.57
2019-03-20T02:54:50.739Z,18.37
2019-03-20T02:56:57.204Z,14.67
2019-03-20T02:59:04.188Z,14.67
2019-03-20T03:01:10.757Z,11.87
2019-03-20T03:03:17.418Z,14.10
2019-03-20T03:05:24.193Z,16.93
2019-03-20T03:07:31.154Z,16.20
2019-03-20T03:09:37.533Z,16.03
2019-03-20T03:11:44.502Z,15.70
2019-03-20T03:13:50.870Z,18.70
2019-03-20T03:15:57.228Z,18.23
2019-03-20T03:18:03.998Z,17.37
2019-03-20T03:20:17.462Z,17.80
2019-03-20T03:22:23.790Z,19.07
2019-03-20T03:24:31.488Z,22.63
2019-03-20T03:26:37.849Z,25.13
2019-03-20T03:28:44.612Z,20.30
2019-03-20T03:30:50.982Z,22.43
2019-03-20T03:32:58.175Z,22.00
2019-03-20T03:35:08.536Z,23.70
2019-03-20T03:37:15.082Z,22.37
2019-03-20T03:39:22.167Z,18.67
2019-03-20T03:41:28.516Z,20.17
2019-03-20T03:43:34.880Z,14.10
2019-03-20T03:45:41.919Z,17.50
2019-03-20T03:47:48.635Z,24.03
2019-03-20T03:49:56.009Z,16.63
2019-03-20T03:52:02.885Z,20.53
2019-03-20T03:54:09.152Z,27.60
2019-03-20T03:56:16.934Z,23.87
2019-03-20T03:58:23.322Z,20.03
2019-03-20T04:00:30.103Z,21.33
2019-03-20T04:02:37.904Z,16.13
2019-03-20T04:04:44.564Z,18.73
2019-03-20T04:06:50.999Z,13.73
2019-03-20T04:08:57.588Z,14.70
2019-03-20T04:13:16.637Z,21.20
2019-03-20T04:15:23.010Z,17.23
2019-03-20T04:17:29.584Z,23.03
2019-03-20T04:19:37.911Z,19.27
2019-03-20T04:21:44.041Z,14.73
2019-03-20T04:23:50.830Z,21.60
2019-03-20T04:25:58.730Z,22.80
2019-03-20T04:28:05.288Z,24.00
2019-03-20T04:30:20.014Z,21.97
2019-03-20T04:32:26.523Z,20.30
2019-03-20T04:34:33.291Z,22.47
2019-03-20T04:36:47.485Z,17.23
2019-03-20T04:38:47.755Z,16.97
2019-03-20T04:40:54.111Z,19.60
2019-03-20T04:43:00.653Z,18.83
2019-03-20T04:45:13.512Z,16.33
2019-03-20T04:47:21.503Z,19.80
2019-03-20T04:49:28.088Z,18.13
2019-03-20T04:51:34.539Z,18.87
2019-03-20T04:53:41.412Z,25.07
2019-03-20T04:55:48.363Z,20.70
2019-03-20T04:57:54.757Z,22.37
2019-03-20T05:00:02.664Z,34.60
2019-03-20T05:02:09.705Z,71.53
2019-03-20T05:04:16.289Z,59.27
2019-03-20T05:06:24.485Z,40.03
2019-03-20T05:08:31.163Z,24.93
2019-03-20T05:10:37.529Z,18.07
2019-03-20T05:12:44.209Z,20.13
2019-03-20T05:14:50.880Z,17.90
2019-03-20T05:16:59.181Z,29.37
2019-03-20T05:19:05.906Z,49.07
2019-03-20T05:21:12.621Z,52.07
2019-03-20T05:23:18.982Z,61.70
2019-03-20T05:25:25.341Z,64.20
2019-03-20T05:27:32.005Z,59.27
2019-03-20T05:29:38.474Z,55.87
2019-03-20T05:31:44.855Z,65.57
2019-03-20T05:33:51.960Z,49.17
2019-03-20T05:35:58.590Z,55.83
2019-03-20T05:38:04.964Z,49.83
2019-03-20T05:40:17.038Z,41.10
2019-03-20T05:42:23.416Z,38.43
2019-03-20T05:44:29.976Z,36.73
2019-03-20T05:46:36.466Z,34.50
2019-03-20T05:48:43.426Z,29.97
2019-03-20T05:50:49.786Z,34.03
2019-03-20T05:53:00.162Z,33.63
2019-03-20T05:55:08.463Z,32.70
2019-03-20T05:57:14.807Z,36.60
2019-03-20T05:59:21.296Z,36.87
2019-03-20T06:01:27.643Z,39.77
2019-03-20T06:03:36.865Z,32.83
2019-03-20T06:05:46.045Z,34.00
2019-03-20T06:07:52.357Z,28.60
2019-03-20T06:10:00.481Z,28.17
2019-03-20T06:12:06.885Z,38.50
2019-03-20T06:14:13.285Z,33.70
2019-03-20T06:16:20.264Z,41.27
2019-03-20T06:18:28.342Z,43.53
2019-03-20T06:20:42.955Z,44.30
2019-03-20T06:22:49.395Z,48.80
2019-03-20T06:24:55.754Z,47.17
2019-03-20T06:27:04.276Z,49.60
2019-03-20T06:29:10.608Z,40.60
2019-03-20T06:31:18.793Z,40.20
2019-03-20T06:33:25.099Z,37.60
2019-03-20T06:35:33.456Z,44.13
2019-03-20T06:37:40.155Z,42.20
2019-03-20T06:39:46.535Z,38.43
2019-03-20T06:41:53.082Z,39.20
2019-03-20T06:43:59.455Z,39.33
2019-03-20T06:46:06.044Z,38.47
2019-03-20T06:48:12.794Z,41.27
2019-03-20T06:50:21.394Z,45.63
2019-03-20T06:52:27.878Z,35.80
2019-03-20T06:54:35.677Z,31.40
2019-03-20T06:56:42.456Z,37.63
2019-03-20T06:58:50.452Z,29.03
2019-03-20T07:01:09.725Z,35.10
2019-03-20T07:03:51.934Z,52.00
2019-03-20T07:06:11.764Z,33.30
2019-03-20T07:08:19.115Z,29.87
2019-03-20T07:10:41.593Z,31.07
2019-03-20T07:12:48.804Z,28.47
2019-03-20T07:14:55.441Z,31.53
2019-03-20T07:17:02.045Z,31.47
2019-03-20T07:19:08.745Z,28.63
2019-03-20T07:21:18.661Z,26.00
2019-03-20T07:23:24.803Z,30.33
2019-03-20T07:25:31.157Z,24.33
2019-03-20T07:27:37.654Z,29.90
2019-03-20T07:29:46.974Z,24.60
2019-03-20T07:31:53.554Z,25.50
2019-03-20T07:34:00.220Z,26.30
2019-03-20T07:36:07.012Z,19.03
2019-03-20T07:38:14.261Z,26.83
2019-03-20T07:40:22.066Z,21.50
2019-03-20T07:42:29.444Z,17.77
2019-03-20T07:44:35.922Z,18.20
2019-03-20T07:46:43.774Z,10.27
2019-03-20T07:48:51.833Z,13.53
2019-03-20T07:50:58.184Z,16.80
2019-03-20T07:53:04.846Z,18.73
2019-03-20T07:55:11.515Z,14.60
2019-03-20T07:57:17.880Z,13.87
2019-03-20T07:59:24.732Z,11.53
2019-03-20T08:01:31.116Z,12.00
2019-03-20T08:03:37.602Z,9.00
2019-03-20T08:05:44.040Z,7.50
2019-03-20T08:07:51.537Z,11.80
2019-03-20T08:09:57.907Z,10.30
2019-03-20T08:12:04.363Z,14.43
2019-03-20T08:14:11.032Z,9.63
2019-03-20T08:16:17.507Z,9.20
2019-03-20T08:18:24.085Z,6.43
2019-03-20T08:20:31.840Z,8.43
2019-03-20T08:22:38.233Z,6.67
2019-03-20T08:24:44.904Z,10.33
2019-03-20T08:26:51.355Z,11.30
2019-03-20T08:28:58.028Z,8.30
2019-03-20T08:31:05.083Z,6.83
2019-03-20T08:33:11.465Z,8.20
2019-03-20T08:35:17.933Z,6.67
2019-03-20T08:37:24.499Z,8.17
2019-03-20T08:39:35.055Z,8.63
2019-03-20T08:41:41.912Z,6.43
2019-03-20T08:43:49.953Z,11.17
2019-03-20T08:45:57.199Z,8.33
2019-03-20T08:48:03.979Z,5.53
2019-03-20T08:50:23.432Z,8.50
2019-03-20T08:52:30.044Z,7.83
2019-03-20T08:54:36.583Z,8.00
2019-03-20T08:56:44.474Z,7.73
2019-03-20T08:58:51.592Z,9.83
2019-03-20T09:00:58.315Z,10.07
2019-03-20T09:03:05.358Z,8.07
2019-03-20T09:05:14.231Z,6.70
2019-03-20T09:07:20.532Z,12.43
2019-03-20T09:09:29.046Z,7.87
2019-03-20T09:11:35.502Z,4.93
2019-03-20T09:13:42.977Z,5.60
2019-03-20T09:15:49.922Z,9.70
2019-03-20T09:17:56.362Z,5.03
2019-03-20T09:20:02.676Z,3.97
2019-03-20T09:22:09.252Z,6.37
2019-03-20T09:24:16.324Z,5.27
2019-03-20T09:26:23.298Z,5.57
2019-03-20T09:28:29.675Z,5.87
2019-03-20T09:30:36.034Z,8.47
2019-03-20T09:32:42.490Z,4.00
2019-03-20T09:34:48.951Z,4.87
2019-03-20T09:36:55.432Z,2.63
2019-03-20T09:39:01.786Z,7.37
2019-03-20T09:41:09.694Z,5.73
2019-03-20T09:43:16.254Z,3.33
2019-03-20T09:45:24.048Z,4.73
2019-03-20T09:47:31.952Z,5.20
2019-03-20T09:49:38.310Z,7.57
2019-03-20T09:51:44.884Z,6.50
2019-03-20T09:53:53.279Z,4.63
2019-03-20T09:56:06.727Z,5.33
2019-03-20T09:58:13.283Z,11.90
2019-03-20T10:00:28.308Z,4.73
2019-03-20T10:02:34.609Z,5.70
2019-03-20T10:04:41.082Z,4.13
2019-03-20T10:06:47.551Z,5.23
2019-03-20T10:08:54.627Z,7.10
2019-03-20T10:11:01.253Z,4.57
2019-03-20T10:13:08.612Z,7.20
2019-03-20T10:15:29.816Z,6.20
2019-03-20T10:17:36.462Z,8.53
2019-03-20T10:19:43.146Z,4.27
2019-03-20T10:21:49.683Z,5.67
2019-03-20T10:23:56.764Z,3.57
2019-03-20T10:26:03.530Z,7.13
2019-03-20T10:28:10.324Z,6.33
2019-03-20T10:30:30.835Z,2.73
2019-03-20T10:32:37.678Z,4.83
2019-03-20T10:34:44.152Z,5.13
2019-03-20T10:36:50.540Z,4.60
2019-03-20T10:39:06.024Z,8.13
2019-03-20T10:41:05.553Z,5.80
2019-03-20T10:43:12.183Z,8.77
2019-03-20T10:45:23.288Z,4.57
2019-03-20T10:47:29.634Z,6.50
2019-03-20T10:49:37.672Z,3.83
2019-03-20T10:51:45.985Z,4.23
2019-03-20T10:53:52.528Z,3.50
2019-03-20T10:56:00.542Z,4.43
2019-03-20T10:58:08.730Z,8.10
2019-03-20T11:00:26.253Z,4.50
2019-03-20T11:02:33.819Z,3.80
2019-03-20T11:04:41.780Z,4.03
2019-03-20T11:06:48.542Z,3.57
2019-03-20T11:08:58.282Z,4.10
2019-03-20T11:11:05.011Z,3.40
2019-03-20T11:13:11.587Z,3.37
2019-03-20T11:15:23.089Z,5.83
2019-03-20T11:17:29.305Z,5.77
2019-03-20T11:19:36.014Z,3.43
2019-03-20T11:21:42.534Z,6.10
2019-03-20T11:23:49.306Z,6.30
2019-03-20T11:25:55.664Z,4.20
2019-03-20T11:28:02.145Z,3.83
2019-03-20T11:30:18.872Z,3.57
2019-03-20T11:32:26.332Z,5.90
2019-03-20T11:34:32.821Z,11.73
2019-03-20T11:36:39.402Z,3.70
2019-03-20T11:38:47.607Z,3.33
2019-03-20T11:40:54.243Z,5.77
2019-03-20T11:43:01.322Z,4.90
2019-03-20T11:45:11.172Z,5.37
2019-03-20T11:47:18.465Z,1.87
2019-03-20T11:49:24.926Z,7.27
2019-03-20T11:51:31.401Z,5.03
2019-03-20T11:53:39.606Z,2.80
2019-03-20T11:55:47.004Z,4.10
2019-03-20T11:57:55.042Z,5.47
2019-03-20T12:00:03.939Z,5.20
2019-03-20T12:02:10.583Z,4.57
2019-03-20T12:04:17.657Z,5.33
2019-03-20T12:06:27.080Z,12.20
2019-03-20T12:08:33.703Z,8.37
2019-03-20T12:10:40.013Z,5.27
2019-03-20T12:12:48.331Z,6.87
2019-03-20T12:14:56.432Z,5.07
2019-03-20T12:17:04.548Z,6.60
2019-03-20T12:19:10.906Z,5.70
2019-03-20T12:21:17.672Z,5.30
2019-03-20T12:23:26.242Z,5.07
2019-03-20T12:25:41.163Z,8.27
2019-03-20T12:27:47.612Z,6.60
2019-03-20T12:29:54.129Z,3.20
2019-03-20T12:32:02.493Z,6.43
2019-03-20T12:34:10.350Z,6.90
2019-03-20T12:36:16.858Z,7.73
2019-03-20T12:38:23.634Z,7.13
2019-03-20T12:40:34.183Z,5.13
2019-03-20T12:42:41.133Z,8.03
2019-03-20T12:44:47.630Z,6.97
2019-03-20T12:46:54.948Z,7.80
2019-03-20T12:49:01.643Z,5.93
2019-03-20T12:51:08.382Z,9.07
2019-03-20T12:53:25.182Z,9.03
2019-03-20T12:55:33.379Z,5.67
2019-03-20T12:57:40.133Z,10.33
2019-03-20T12:59:48.520Z,7.73
2019-03-20T13:01:55.163Z,6.90
2019-03-20T13:04:03.074Z,20.07
2019-03-20T13:06:11.233Z,6.37
2019-03-20T13:08:18.819Z,10.07
2019-03-20T13:10:27.123Z,10.23
2019-03-20T13:12:33.682Z,9.90
2019-03-20T13:14:44.721Z,7.97
2019-03-20T13:16:52.543Z,6.67
2019-03-20T13:18:59.392Z,5.03
2019-03-20T13:21:07.406Z,9.50
2019-03-20T13:23:25.070Z,10.63
2019-03-20T13:25:33.389Z,13.97
2019-03-20T13:27:41.792Z,9.83
2019-03-20T13:29:48.664Z,6.20
2019-03-20T13:31:55.407Z,7.07
2019-03-20T13:34:01.786Z,7.77
2019-03-20T13:36:08.814Z,6.57
2019-03-20T13:38:15.446Z,6.87
2019-03-20T13:40:22.320Z,5.20
2019-03-20T13:42:28.983Z,7.70
2019-03-20T13:44:35.756Z,6.13
2019-03-20T13:46:42.436Z,7.57
2019-03-20T13:48:49.372Z,4.40
2019-03-20T13:50:57.909Z,7.07
2019-03-20T13:53:06.037Z,8.97
2019-03-20T13:55:17.299Z,8.33
2019-03-20T13:57:23.669Z,6.67
2019-03-20T13:59:31.439Z,9.10
2019-03-20T14:01:38.327Z,12.83
2019-03-20T14:03:47.499Z,10.00
2019-03-20T14:05:55.357Z,7.83
2019-03-20T14:08:02.140Z,10.27
2019-03-20T14:10:24.589Z,6.03
2019-03-20T14:12:27.036Z,12.87
2019-03-20T14:14:33.457Z,8.80
2019-03-20T14:16:41.198Z,7.93
2019-03-20T14:18:47.899Z,7.50
2019-03-20T14:20:54.544Z,11.37
2019-03-20T14:23:01.837Z,8.73
2019-03-20T14:25:12.672Z,8.63
2019-03-20T14:27:19.260Z,10.73
2019-03-20T14:29:29.509Z,12.17
2019-03-20T14:31:36.239Z,9.57
2019-03-20T14:33:42.899Z,10.53
2019-03-20T14:35:50.552Z,14.60
2019-03-20T14:37:57.170Z,13.97
2019-03-20T14:40:04.828Z,11.47
2019-03-20T14:42:14.257Z,7.87
2019-03-20T14:44:20.806Z,10.30
2019-03-20T14:46:28.780Z,5.47
2019-03-20T14:48:35.940Z,16.20
2019-03-20T14:50:42.686Z,11.43
2019-03-20T14:52:49.362Z,8.37
2019-03-20T14:54:56.309Z,12.30
2019-03-20T14:57:02.993Z,35.60
2019-03-20T14:59:09.350Z,13.17
2019-03-20T15:01:16.302Z,23.70
2019-03-20T15:03:23.396Z,27.47
2019-03-20T15:05:30.300Z,16.20
2019-03-20T15:07:38.255Z,22.00
2019-03-20T15:09:45.556Z,17.70
2019-03-20T15:11:54.024Z,11.50
2019-03-20T15:14:00.653Z,8.70
2019-03-20T15:16:13.673Z,22.90
2019-03-20T15:18:20.224Z,7.60
2019-03-20T15:20:26.994Z,7.73
2019-03-20T15:22:35.555Z,14.03
2019-03-20T15:24:42.690Z,12.27
2019-03-20T15:26:49.438Z,12.27
2019-03-20T15:29:01.498Z,9.97
2019-03-20T15:31:09.458Z,74.80
2019-03-20T15:33:16.570Z,23.00
2019-03-20T15:35:23.433Z,17.03
2019-03-20T15:37:30.669Z,66.53
2019-03-20T15:39:37.604Z,73.60
2019-03-20T15:41:45.001Z,88.87
2019-03-20T15:44:01.962Z,164.43
2019-03-20T15:46:01.299Z,159.47
2019-03-20T15:48:08.489Z,59.53
2019-03-20T15:50:18.518Z,39.47
2019-03-20T15:52:26.645Z,13.23
2019-03-20T15:54:33.814Z,12.63
2019-03-20T15:56:40.550Z,13.80
2019-03-20T15:58:50.426Z,10.10
2019-03-20T16:01:01.142Z,13.57
2019-03-20T16:03:14.895Z,15.97
2019-03-20T16:05:26.422Z,25.00
2019-03-20T16:07:36.421Z,15.33
2019-03-20T16:09:46.651Z,23.27
2019-03-20T16:11:56.875Z,17.87
2019-03-20T16:14:06.601Z,14.80
2019-03-20T16:16:18.621Z,18.73
2019-03-20T16:18:30.260Z,15.30
2019-03-20T16:20:41.388Z,12.17
2019-03-20T16:22:55.940Z,13.53
2019-03-20T16:25:03.927Z,17.57
2019-03-20T16:27:11.808Z,52.60
2019-03-20T16:29:19.670Z,39.13
2019-03-20T16:31:27.951Z,80.90
2019-03-20T16:33:42.382Z,23.13
2019-03-20T16:35:51.737Z,79.60
2019-03-20T16:37:59.771Z,33.30
2019-03-20T16:40:15.330Z,202.23
2019-03-20T16:42:27.699Z,199.77
2019-03-20T16:44:35.821Z,109.87
2019-03-20T16:46:45.482Z,20.97
2019-03-20T16:48:53.569Z,30.97
2019-03-20T16:51:03.649Z,36.30
2019-03-20T16:53:12.847Z,26.13
2019-03-20T16:55:22.880Z,42.20
2019-03-20T16:57:32.204Z,21.33
2019-03-20T16:59:43.234Z,19.93
2019-03-20T17:01:53.736Z,29.90
2019-03-20T17:04:05.684Z,26.93
2019-03-20T17:06:18.058Z,19.77
2019-03-20T17:08:33.924Z,16.80
2019-03-20T17:10:47.809Z,159.83
2019-03-20T17:12:59.847Z,27.63
2019-03-20T17:15:19.287Z,23.53
2019-03-20T17:17:29.000Z,22.10
2019-03-20T17:19:40.706Z,71.87
2019-03-20T17:21:49.733Z,28.70
2019-03-20T17:23:57.911Z,51.20
2019-03-20T17:26:05.349Z,83.27
2019-03-20T17:28:19.590Z,20.20
2019-03-20T17:30:39.751Z,20.07
2019-03-20T17:32:48.131Z,21.50
2019-03-20T17:34:58.156Z,24.87
2019-03-20T17:37:06.023Z,32.17
2019-03-20T17:39:19.552Z,31.33
2019-03-20T17:41:36.285Z,30.10
2019-03-20T17:43:36.570Z,57.70
2019-03-20T17:45:44.934Z,47.80
2019-03-20T17:47:52.050Z,33.30
2019-03-20T17:49:59.758Z,18.03
2019-03-20T17:52:11.258Z,21.83
2019-03-20T17:54:26.256Z,91.33
2019-03-20T17:56:38.448Z,54.93
2019-03-20T17:58:51.459Z,36.60
2019-03-20T18:01:01.199Z,30.70
2019-03-20T18:03:14.233Z,23.20
2019-03-20T18:05:27.495Z,17.13
2019-03-20T18:07:40.860Z,17.30
2019-03-20T18:09:54.608Z,11.20
2019-03-20T18:12:08.384Z,34.07
2019-03-20T18:14:21.879Z,117.00
2019-03-20T18:16:33.680Z,32.13
2019-03-20T18:18:49.838Z,23.60
2019-03-20T18:21:06.333Z,47.67
2019-03-20T18:23:19.604Z,15.73
2019-03-20T18:25:32.761Z,15.77
2019-03-20T18:27:46.455Z,21.33
2019-03-20T18:30:01.457Z,14.70
2019-03-20T18:32:11.695Z,18.40
2019-03-20T18:34:21.110Z,18.60
2019-03-20T18:36:35.703Z,20.43
2019-03-20T18:38:49.712Z,23.63
2019-03-20T18:41:03.758Z,23.60
2019-03-20T18:43:15.197Z,19.57
2019-03-20T18:45:26.479Z,20.03
2019-03-20T18:47:33.978Z,16.47
2019-03-20T18:49:41.102Z,18.03
2019-03-20T18:51:48.311Z,13.57
2019-03-20T18:53:55.214Z,13.87
2019-03-20T18:56:02.717Z,15.93
2019-03-20T18:58:09.983Z,12.50
2019-03-20T19:00:31.712Z,15.80
2019-03-20T19:02:39.737Z,11.57
2019-03-20T19:04:47.653Z,12.53
2019-03-20T19:06:55.498Z,13.23
2019-03-20T19:09:03.289Z,15.00
2019-03-20T19:11:14.142Z,14.77
2019-03-20T19:13:24.390Z,13.93
2019-03-20T19:15:34.195Z,47.00
2019-03-20T19:17:42.840Z,81.43
2019-03-20T19:19:51.596Z,49.23
2019-03-20T19:21:59.432Z,21.40
2019-03-20T19:24:06.588Z,14.70
2019-03-20T19:26:13.897Z,13.43
2019-03-20T19:28:21.101Z,15.37
2019-03-20T19:30:31.949Z,21.00
2019-03-20T19:32:40.202Z,14.37
2019-03-20T19:34:47.177Z,14.57
2019-03-20T19:36:54.362Z,14.03
2019-03-20T19:39:01.556Z,14.50
2019-03-20T19:41:10.262Z,16.47
2019-03-20T19:43:22.760Z,16.13
2019-03-20T19:45:31.180Z,18.83
2019-03-20T19:47:45.319Z,15.27
2019-03-20T19:52:13.029Z,19.70
2019-03-20T19:54:21.301Z,19.77
2019-03-20T19:56:28.840Z,14.80
2019-03-20T19:58:42.715Z,16.07
2019-03-20T20:00:59.293Z,18.07
2019-03-20T20:03:06.595Z,16.63
2019-03-20T20:05:16.186Z,14.53
2019-03-20T20:07:23.484Z,13.90
2019-03-20T20:09:30.728Z,12.60
2019-03-20T20:11:37.698Z,14.13
2019-03-20T20:13:46.779Z,16.40
2019-03-20T20:15:53.917Z,14.20
2019-03-20T20:18:01.066Z,12.27
2019-03-20T20:20:20.360Z,14.23
2019-03-20T20:22:27.497Z,19.13
2019-03-20T20:24:34.958Z,17.43
2019-03-20T20:26:42.238Z,15.37
2019-03-20T20:28:48.958Z,25.87
2019-03-20T20:30:56.286Z,34.07
2019-03-20T20:33:03.329Z,85.97
2019-03-20T20:35:12.658Z,39.93
2019-03-20T20:37:21.485Z,13.50
2019-03-20T20:39:28.896Z,14.40
2019-03-20T20:41:37.593Z,15.03
2019-03-20T20:44:06.761Z,10.77
2019-03-20T20:46:16.669Z,12.40
2019-03-20T20:48:24.338Z,16.53
2019-03-20T20:50:33.383Z,17.73
2019-03-20T20:52:41.311Z,8.03
2019-03-20T20:54:48.929Z,10.50
2019-03-20T20:56:56.250Z,11.93
2019-03-20T20:59:06.226Z,11.07
2019-03-20T21:01:14.287Z,11.77
2019-03-20T21:03:21.402Z,9.47
2019-03-20T21:05:28.731Z,14.27
2019-03-20T21:07:36.452Z,9.07
2019-03-20T21:09:44.704Z,14.47
2019-03-20T21:11:52.041Z,9.30
2019-03-20T21:14:00.492Z,13.43
2019-03-20T21:16:07.590Z,9.90
2019-03-20T21:18:35.254Z,11.33
2019-03-20T21:20:42.459Z,23.87
2019-03-20T21:23:26.526Z,16.70
2019-03-20T21:25:34.035Z,12.17
2019-03-20T21:28:16.376Z,14.43
2019-03-20T21:30:49.310Z,13.77
2019-03-20T21:33:11.411Z,15.73
2019-03-20T21:35:45.897Z,16.97
2019-03-20T21:38:07.914Z,13.20
2019-03-20T21:40:17.217Z,11.27
2019-03-20T21:42:53.268Z,16.40
2019-03-20T21:45:37.819Z,11.13
2019-03-20T21:47:46.461Z,14.73
2019-03-20T21:49:53.415Z,15.03
2019-03-20T21:52:01.730Z,17.83
2019-03-20T21:54:16.601Z,13.67
2019-03-20T21:57:00.145Z,10.90
2019-03-20T21:59:20.257Z,11.17
2019-03-20T22:01:59.758Z,18.27
2019-03-20T22:04:12.125Z,12.30
2019-03-20T22:06:55.880Z,16.83
2019-03-20T22:09:03.234Z,18.07
2019-03-20T22:11:33.796Z,15.77
2019-03-20T22:13:51.862Z,14.77
2019-03-20T22:16:25.439Z,19.97
2019-03-20T22:19:07.525Z,16.53
2019-03-20T22:21:43.802Z,12.80
2019-03-20T22:24:19.544Z,17.20
2019-03-20T22:26:48.425Z,14.93
2019-03-20T22:29:26.093Z,14.73
2019-03-20T22:31:38.236Z,17.93
2019-03-20T22:34:40.612Z,13.70
2019-03-20T22:36:48.229Z,15.23
2019-03-20T22:39:11.984Z,16.53
2019-03-20T22:41:40.565Z,14.80
2019-03-20T22:43:53.995Z,16.10
2019-03-20T22:46:33.521Z,12.13
2019-03-20T22:49:04.781Z,13.93
2019-03-20T22:51:49.024Z,14.87
2019-03-20T22:54:36.247Z,12.70
2019-03-20T22:57:07.729Z,14.80
2019-03-20T22:59:14.057Z,16.37
2019-03-20T23:01:44.282Z,11.87
2019-03-20T23:04:14.405Z,10.93
2019-03-20T23:06:20.958Z,11.40
2019-03-20T23:08:28.759Z,15.87
2019-03-20T23:10:36.546Z,17.97
2019-03-20T23:12:44.768Z,12.63
2019-03-20T23:14:51.548Z,13.87
2019-03-20T23:17:01.414Z,11.57
2019-03-20T23:19:10.539Z,12.17
2019-03-20T23:21:18.210Z,14.03
2019-03-20T23:23:26.190Z,11.07
2019-03-20T23:25:32.762Z,13.27
2019-03-20T23:27:39.121Z,11.30
2019-03-20T23:29:45.682Z,11.40
2019-03-20T23:31:52.059Z,11.30
2019-03-20T23:34:02.312Z,14.90
2019-03-20T23:36:10.625Z,15.50
2019-03-20T23:38:17.218Z,16.33
2019-03-20T23:40:26.430Z,14.90
2019-03-20T23:42:35.124Z,13.17
2019-03-20T23:44:42.731Z,16.13
2019-03-20T23:46:49.764Z,13.67
2019-03-20T23:49:02.496Z,11.67
2019-03-20T23:51:18.913Z,15.70
2019-03-20T23:53:25.629Z,13.67
2019-03-20T23:55:32.146Z,12.00
2019-03-20T23:57:38.617Z,14.57
2019-03-20T23:59:47.428Z,15.67
